Time;durP1;ratioP1;P1;durP2;ratioP2;P2;SDS_P1;SDS_P2;PMS_P1;PMS_P2;Temp;Humidity;BMP_temperature;BMP_pressure;BME280_temperature;BME280_humidity;BME280_pressure;Samples;Min_cycle;Max_cycle;Signal;HPM_P1;HPM_P2
2023/05/25 00:00:22;;;;;;;1.23;0.98;;;;;;;9.32;67.26;101908.53;15613692;28;20483;-50
2023/05/25 00:07:55;;;;;;;6.95;1.35;;;;;;;9.36;67.01;101909.84;15607871;28;20414;-51
2023/05/25 00:15:29;;;;;;;2.90;2.00;;;;;;;9.23;67.59;101906.88;15571832;28;20052;-50
2023/05/25 00:23:03;;;;;;;1.13;1.08;;;;;;;9.16;67.63;101914.78;15595226;28;20064;-52
2023/05/25 00:30:37;;;;;;;1.47;1.13;;;;;;;9.15;67.98;101911.28;15625498;28;20111;-53
2023/05/25 00:38:13;;;;;;;1.33;1.20;;;;;;;8.96;68.05;101909.00;15625233;28;20053;-52
2023/05/25 00:45:47;;;;;;;1.92;0.70;;;;;;;9.06;68.02;101914.97;15595033;28;20568;-54
2023/05/25 00:53:23;;;;;;;1.20;1.13;;;;;;;8.98;68.32;101904.28;15600505;28;20385;-54
2023/05/25 01:01:01;;;;;;;4.95;0.85;;;;;;;8.94;68.01;101901.09;15603863;28;20041;-52
2023/05/25 01:08:38;;;;;;;2.08;1.15;;;;;;;8.60;68.49;101879.09;15592101;28;20483;-51
2023/05/25 01:16:13;;;;;;;4.03;1.27;;;;;;;8.85;67.67;101907.47;15609300;28;20707;-51
2023/05/25 01:23:55;;;;;;;1.08;0.90;;;;;;;8.77;68.39;101914.72;15595592;28;20048;-50
2023/05/25 01:31:31;;;;;;;1.07;0.97;;;;;;;8.56;68.25;101913.38;15604953;28;20522;-49
2023/05/25 01:39:06;;;;;;;1.80;1.55;;;;;;;8.41;68.42;101917.75;15567649;28;20122;-50
2023/05/25 01:46:40;;;;;;;3.65;1.65;;;;;;;8.31;68.78;101922.41;15595625;28;20050;-50
2023/05/25 01:54:19;;;;;;;0.60;0.57;;;;;;;8.45;68.57;101918.25;15564403;28;20047;-49
2023/05/25 02:01:53;;;;;;;1.13;0.98;;;;;;;8.38;68.51;101918.06;15583295;28;20111;-54
2023/05/25 02:09:27;;;;;;;1.30;1.08;;;;;;;8.28;68.72;101914.69;15576411;28;20065;-50
2023/05/25 02:17:02;;;;;;;1.27;0.80;;;;;;;8.26;68.11;101901.50;15593230;28;20049;-48
2023/05/25 02:24:36;;;;;;;8.02;1.25;;;;;;;8.11;68.14;101897.78;15577194;28;20075;-51
2023/05/25 02:32:11;;;;;;;1.13;0.93;;;;;;;7.79;68.33;101906.59;15571783;28;20049;-51
2023/05/25 02:39:45;;;;;;;2.28;1.05;;;;;;;7.91;67.95;101905.28;15583706;28;20041;-50
2023/05/25 02:47:19;;;;;;;1.30;1.15;;;;;;;7.70;68.15;101903.06;15579214;28;20498;-51
2023/05/25 02:54:53;;;;;;;0.60;0.60;;;;;;;7.58;68.66;101907.84;15596572;28;20065;-48
2023/05/25 03:02:33;;;;;;;0.77;0.57;;;;;;;7.75;68.42;101914.09;15598297;28;20049;-52
2023/05/25 03:10:11;;;;;;;1.30;0.60;;;;;;;7.75;68.50;101914.09;15580750;28;20046;-52
2023/05/25 03:17:44;;;;;;;1.88;0.55;;;;;;;7.56;68.90;101917.06;15568831;28;20140;-55
2023/05/25 03:25:20;;;;;;;0.47;0.47;;;;;;;7.79;68.65;101925.31;15568585;28;20037;-52
2023/05/25 03:32:53;;;;;;;1.15;0.85;;;;;;;7.63;70.21;101934.94;15582699;28;20168;-49
2023/05/25 03:40:28;;;;;;;1.08;0.63;;;;;;;7.61;70.09;101931.59;15587974;28;20053;-52
2023/05/25 03:48:02;;;;;;;0.90;0.50;;;;;;;7.65;70.36;101930.28;15594044;28;20132;-53
2023/05/25 03:55:38;;;;;;;0.77;0.45;;;;;;;7.97;69.84;101938.53;15573687;28;20045;-51
2023/05/25 04:03:12;;;;;;;4.28;0.55;;;;;;;8.31;69.05;101941.13;15605079;28;20048;-51
2023/05/25 04:10:46;;;;;;;2.63;0.53;;;;;;;8.15;70.62;101949.94;15581758;28;20060;-51
2023/05/25 04:18:19;;;;;;;1.08;0.90;;;;;;;8.49;70.21;101952.53;15625294;28;20100;-52
2023/05/25 04:25:56;;;;;;;1.38;1.27;;;;;;;8.25;73.38;101950.63;15593941;28;20468;-49
2023/05/25 04:33:29;;;;;;;3.38;1.60;;;;;;;8.89;72.13;101961.53;15597143;28;20099;-50
2023/05/25 04:41:09;;;;;;;1.48;1.35;;;;;;;9.55;71.19;101972.94;15581787;28;20153;-50
2023/05/25 04:48:46;;;;;;;1.80;1.30;;;;;;;9.91;70.89;101970.59;15592984;28;20509;-52
2023/05/25 04:56:24;;;;;;;1.08;0.77;;;;;;;10.32;70.42;101970.41;15573476;28;20080;-51
2023/05/25 05:04:01;;;;;;;1.95;1.50;;;;;;;10.54;72.31;101974.06;15585989;28;20046;-50
2023/05/25 05:11:35;;;;;;;3.08;1.35;;;;;;;11.24;71.48;101955.81;15591458;28;20124;-51
2023/05/25 05:19:10;;;;;;;2.40;1.92;;;;;;;11.83;70.25;101967.56;15587756;28;20502;-51
2023/05/25 05:26:44;;;;;;;2.97;1.83;;;;;;;12.36;69.74;101973.56;15615344;28;20045;-51
2023/05/25 05:34:21;;;;;;;4.63;1.67;;;;;;;12.84;69.08;101981.84;15592899;28;20096;-51
2023/05/25 05:41:58;;;;;;;2.08;1.17;;;;;;;13.14;67.80;101987.88;15591674;28;20089;-51
2023/05/25 05:49:33;;;;;;;2.00;1.27;;;;;;;13.82;66.14;101980.00;15581915;28;20104;-50
2023/05/25 05:57:08;;;;;;;3.38;2.22;;;;;;;14.58;63.94;101996.84;15598985;28;20034;-52
2023/05/25 06:04:41;;;;;;;3.75;1.63;;;;;;;14.90;63.08;101997.09;15611175;28;20041;-49
2023/05/25 06:12:15;;;;;;;2.75;1.83;;;;;;;15.39;60.90;102004.75;15585626;28;20072;-50
2023/05/25 06:19:49;;;;;;;7.03;1.60;;;;;;;15.88;61.02;102010.66;15588726;28;20122;-52
2023/05/25 06:27:23;;;;;;;4.93;1.67;;;;;;;16.28;60.53;102014.84;15581709;28;20494;-51
2023/05/25 06:34:56;;;;;;;3.80;1.52;;;;;;;16.82;57.73;102026.19;15598327;28;20123;-52
2023/05/25 06:42:31;;;;;;;2.20;1.15;;;;;;;17.06;57.29;102027.25;15596568;28;20099;-53
2023/05/25 06:50:05;;;;;;;10.57;2.50;;;;;;;17.36;56.27;102030.13;15596125;28;20552;-52
2023/05/25 06:57:40;;;;;;;1.48;1.17;;;;;;;17.54;54.94;102027.44;15590479;28;20107;-54
2023/05/25 07:05:13;;;;;;;2.72;1.50;;;;;;;17.73;54.94;102020.16;15623824;28;20470;-53
2023/05/25 07:12:47;;;;;;;2.65;1.25;;;;;;;18.87;53.38;102028.44;15599372;28;20075;-51
2023/05/25 07:20:20;;;;;;;1.60;1.08;;;;;;;19.11;49.69;102021.94;15586583;28;20418;-54
2023/05/25 07:27:55;;;;;;;9.63;1.27;;;;;;;19.94;47.41;102024.63;15580664;28;20045;-52
2023/05/25 07:35:27;;;;;;;5.15;1.10;;;;;;;18.88;46.82;102031.97;15608082;28;20045;-55
2023/05/25 07:43:01;;;;;;;;;;;;;;;20.21;44.79;102027.63;15590963;28;20041;-53
2023/05/25 07:50:35;;;;;;;4.22;1.05;;;;;;;21.00;42.68;102030.41;15622080;28;19932;-54
2023/05/25 07:58:09;;;;;;;1.75;0.88;;;;;;;20.29;44.38;102033.50;15604464;28;20042;-52
2023/05/25 08:05:42;;;;;;;2.30;1.05;;;;;;;20.67;44.36;102037.50;15596625;28;20045;-50
2023/05/25 08:13:17;;;;;;;4.45;1.05;;;;;;;19.61;42.35;102040.56;15626323;28;20057;-52
2023/05/25 08:20:50;;;;;;;0.77;0.50;;;;;;;19.82;45.26;102035.56;15624289;28;20518;-52
2023/05/25 08:28:24;;;;;;;0.65;0.60;;;;;;;20.05;43.29;102035.50;15626915;28;20041;-54
2023/05/25 08:35:57;;;;;;;1.58;1.00;;;;;;;18.63;45.82;102049.28;15605103;28;20417;-51
2023/05/25 08:43:32;;;;;;;3.05;1.58;;;;;;;18.67;48.10;102050.47;15621811;28;20107;-51
2023/05/25 08:51:07;;;;;;;1.95;0.82;;;;;;;20.48;44.42;102025.16;15602650;28;20453;-55
2023/05/25 08:58:45;;;;;;;2.40;1.15;;;;;;;19.07;45.36;102045.28;15634413;22;20089;-53
2023/05/25 09:06:22;;;;;;;3.03;1.20;;;;;;;19.34;45.81;102033.91;15668053;28;20083;-45
2023/05/25 09:13:57;;;;;;;1.52;1.35;;;;;;;18.40;46.02;102051.91;15633624;28;20049;-45
2023/05/25 09:21:30;;;;;;;0.82;0.70;;;;;;;19.54;43.60;102049.91;15621828;28;20077;-52
2023/05/25 09:29:04;;;;;;;3.38;0.95;;;;;;;21.35;41.28;102052.00;15655636;28;20132;-49
2023/05/25 09:36:40;;;;;;;2.03;0.98;;;;;;;19.73;42.70;102058.78;15658045;28;20132;-49
2023/05/25 09:44:14;;;;;;;2.55;1.10;;;;;;;21.47;41.55;102050.00;15673535;28;20527;-51
2023/05/25 09:51:48;;;;;;;1.90;0.90;;;;;;;21.44;39.18;102058.69;15673506;28;20118;-49
2023/05/25 09:59:23;;;;;;;2.15;0.95;;;;;;;20.76;41.78;102063.31;15675116;28;20055;-47
2023/05/25 10:06:57;;;;;;;3.92;1.15;;;;;;;22.46;39.26;102054.53;15657812;28;20041;-50
2023/05/25 10:14:35;;;;;;;4.18;1.73;;;;;;;22.16;40.83;102071.44;15642636;28;20037;-47
2023/05/25 10:22:15;;;;;;;1.83;1.00;;;;;;;21.01;41.88;102070.28;15625236;28;20076;-50
2023/05/25 10:29:51;;;;;;;1.48;1.02;;;;;;;21.51;42.15;102066.72;15657623;28;20041;-49
2023/05/25 10:37:26;;;;;;;1.40;0.77;;;;;;;22.55;39.19;102063.94;15659558;28;20040;-51
2023/05/25 10:45:00;;;;;;;3.67;1.38;;;;;;;20.93;39.79;102067.94;15675011;28;20099;-48
2023/05/25 10:52:34;;;;;;;1.42;0.50;;;;;;;22.01;37.83;102060.25;15647227;28;20041;-50
2023/05/25 11:00:13;;;;;;;2.15;0.73;;;;;;;23.12;36.78;102057.88;15672133;28;20187;-48
2023/05/25 11:07:53;;;;;;;8.73;1.20;;;;;;;22.71;37.10;102059.44;15671459;28;20041;-49
2023/05/25 11:15:30;;;;;;;7.05;1.52;;;;;;;21.66;38.70;102058.72;15633659;28;20073;-49
2023/05/25 11:23:23;;;;;;;2.25;0.77;;;;;;;21.31;39.66;102045.38;15622145;28;20090;-47
2023/05/25 11:31:01;;;;;;;4.45;1.45;;;;;;;22.14;40.30;102048.97;15669852;28;20098;-52
2023/05/25 11:38:36;;;;;;;2.05;1.10;;;;;;;21.80;38.19;102061.94;15667277;28;20048;-53
2023/05/25 11:46:12;;;;;;;4.28;1.05;;;;;;;21.43;39.31;102059.78;15649134;28;20127;-49
2023/05/25 11:53:52;;;;;;;2.28;1.42;;;;;;;22.80;38.42;102043.34;15657592;28;20099;-47
2023/05/25 12:01:26;;;;;;;1.30;1.05;;;;;;;21.48;40.04;102045.34;15651383;28;20048;-47
2023/05/25 12:09:01;;;;;;;5.38;1.40;;;;;;;23.22;38.75;102039.88;15665908;28;20103;-54
2023/05/25 12:16:39;;;;;;;7.75;2.08;;;;;;;24.87;34.09;102030.09;15635467;28;20099;-48
2023/05/25 12:24:12;;;;;;;4.22;1.23;;;;;;;22.38;39.50;102044.03;15640133;28;20045;-50
2023/05/25 12:31:46;;;;;;;1.67;0.93;;;;;;;22.57;38.53;102052.72;15680958;28;20072;-50
2023/05/25 12:39:33;;;;;;;4.07;1.08;;;;;;;21.93;39.06;102047.06;15680113;28;20048;-51
2023/05/25 12:47:11;;;;;;;3.03;1.55;;;;;;;22.50;40.39;102032.94;15676241;28;20064;-48
2023/05/25 12:54:48;;;;;;;2.75;1.35;;;;;;;22.29;41.77;102042.84;15657163;28;20065;-49
2023/05/25 13:02:22;;;;;;;2.85;1.33;;;;;;;21.74;43.25;102041.91;15677846;28;20127;-47
2023/05/25 13:09:55;;;;;;;3.25;1.48;;;;;;;22.44;40.05;102031.25;15660668;28;20099;-47
2023/05/25 13:17:30;;;;;;;5.38;1.40;;;;;;;22.65;40.87;102020.22;15640311;28;20128;-53
2023/05/25 13:25:05;;;;;;;4.40;1.33;;;;;;;21.79;40.77;102022.84;15632986;28;20041;-50
2023/05/25 13:32:40;;;;;;;2.40;1.40;;;;;;;21.77;41.15;102013.22;15657311;28;20111;-50
2023/05/25 13:40:14;;;;;;;2.10;1.23;;;;;;;20.68;44.03;102021.97;15658080;28;20116;-48
2023/05/25 13:47:48;;;;;;;3.85;1.30;;;;;;;21.44;43.19;102016.88;15655030;28;20137;-51
2023/05/25 13:55:21;;;;;;;4.25;1.52;;;;;;;21.22;42.68;102023.13;15658542;28;20041;-49
2023/05/25 14:02:56;;;;;;;3.75;1.67;;;;;;;21.70;43.48;102015.34;15674788;28;20490;-51
2023/05/25 14:10:32;;;;;;;4.20;2.03;;;;;;;20.78;43.21;102017.50;15637497;28;20181;-50
2023/05/25 14:18:06;;;;;;;1.27;0.80;;;;;;;21.22;42.05;102006.72;15611060;28;20470;-48
2023/05/25 14:25:39;;;;;;;2.08;0.98;;;;;;;21.29;42.81;102014.72;15665191;28;20406;-49
2023/05/25 14:33:14;;;;;;;2.58;1.20;;;;;;;20.80;43.41;102009.91;15672476;28;20041;-49
2023/05/25 14:40:47;;;;;;;1.63;1.45;;;;;;;19.99;44.89;102009.19;15673632;28;20055;-47
2023/05/25 14:48:23;;;;;;;;;;;;;;;20.62;44.17;102004.69;15670234;28;20072;-47
2023/05/25 14:55:56;;;;;;;5.18;1.20;;;;;;;20.46;43.81;101998.06;15672419;28;19921;-46
2023/05/25 15:03:31;;;;;;;2.10;0.98;;;;;;;20.48;42.25;102001.44;15679667;22;20060;-51
2023/05/25 15:11:04;;;;;;;2.38;1.13;;;;;;;20.08;43.42;101996.84;15667242;28;20087;-52
2023/05/25 15:18:39;;;;;;;2.17;1.00;;;;;;;20.33;43.14;101993.78;15669545;28;20433;-46
2023/05/25 15:26:13;;;;;;;3.25;1.02;;;;;;;20.00;44.65;101989.03;15669884;28;20049;-53
2023/05/25 15:33:49;;;;;;;1.83;1.02;;;;;;;20.46;44.73;101989.06;15668748;28;20044;-52
2023/05/25 15:41:22;;;;;;;0.50;0.50;;;;;;;20.60;43.23;101988.53;15647687;28;20079;-52
2023/05/25 15:48:56;;;;;;;;;;;;;;;20.44;44.27;101988.50;15652391;28;20136;-51
2023/05/25 15:56:29;;;;;;;0.85;0.55;;;;;;;20.25;44.33;101988.72;15675991;28;19921;-49
2023/05/25 16:04:03;;;;;;;1.00;0.50;;;;;;;20.13;43.50;101977.84;15684834;28;20072;-46
2023/05/25 16:11:36;;;;;;;3.25;0.88;;;;;;;19.93;44.46;101982.09;15666903;28;20211;-45
2023/05/25 16:19:11;;;;;;;2.35;0.90;;;;;;;19.82;44.31;101975.63;15669979;28;20464;-50
2023/05/25 16:26:44;;;;;;;11.70;1.02;;;;;;;19.74;43.99;101967.81;15676183;28;20052;-48
2023/05/25 16:34:18;;;;;;;2.50;1.15;;;;;;;19.35;45.39;101972.94;15672529;28;20032;-48
2023/05/25 16:41:51;;;;;;;1.35;1.00;;;;;;;19.47;43.46;101970.22;15676612;28;20127;-51
2023/05/25 16:49:26;;;;;;;0.68;0.50;;;;;;;19.23;45.36;101947.63;15668149;28;20044;-51
2023/05/25 16:56:58;;;;;;;1.80;0.82;;;;;;;19.34;46.24;101958.50;15671293;28;20373;-54
2023/05/25 17:04:33;;;;;;;3.88;1.42;;;;;;;19.24;46.30;101961.00;15675080;28;20045;-47
2023/05/25 17:12:07;;;;;;;1.35;0.75;;;;;;;19.02;46.41;101957.22;15684967;28;20115;-51
2023/05/25 17:19:41;;;;;;;3.17;0.90;;;;;;;19.29;45.12;101971.19;15660104;28;20126;-47
2023/05/25 17:27:14;;;;;;;1.95;0.52;;;;;;;18.80;45.93;101965.16;15677059;28;20045;-49
2023/05/25 17:34:49;;;;;;;2.90;1.63;;;;;;;18.65;46.95;101981.03;15670332;28;20049;-51
2023/05/25 17:42:22;;;;;;;0.70;0.70;;;;;;;18.46;46.74;101963.97;15677151;28;20069;-46
2023/05/25 17:49:56;;;;;;;6.43;4.10;;;;;;;18.20;46.70;101971.47;15656225;28;20053;-50
2023/05/25 17:57:30;;;;;;;1.35;0.95;;;;;;;18.23;46.98;101973.75;15653972;28;20048;-47
2023/05/25 18:05:04;;;;;;;1.17;0.95;;;;;;;18.29;46.71;101974.72;15667477;28;20049;-53
2023/05/25 18:12:38;;;;;;;0.85;0.65;;;;;;;18.14;47.18;101979.72;15656423;28;20049;-46
2023/05/25 18:20:12;;;;;;;2.22;1.00;;;;;;;18.38;47.32;101980.66;15674809;28;20120;-49
2023/05/25 18:27:45;;;;;;;1.10;0.80;;;;;;;18.13;48.02;101987.03;15679404;28;20358;-51
2023/05/25 18:35:19;;;;;;;4.72;1.33;;;;;;;18.30;47.40;101987.22;15667376;28;20104;-52
2023/05/25 18:42:52;;;;;;;1.23;0.35;;;;;;;18.04;48.63;101997.38;15669849;28;20099;-47
2023/05/25 18:50:26;;;;;;;2.10;1.00;;;;;;;17.83;48.87;101996.00;15669520;28;20048;-49
2023/05/25 18:57:59;;;;;;;5.25;1.80;;;;;;;17.33;50.24;102006.97;15661397;28;20388;-52
2023/05/25 19:05:33;;;;;;;1.35;0.82;;;;;;;17.48;49.97;102005.78;15667519;28;20049;-51
2023/05/25 19:13:06;;;;;;;1.80;0.50;;;;;;;17.11;50.80;102013.03;15681357;28;20045;-54
2023/05/25 19:20:40;;;;;;;3.25;1.15;;;;;;;17.09;51.16;102013.25;15653847;28;20144;-49
2023/05/25 19:28:13;;;;;;;1.23;0.70;;;;;;;16.81;52.01;102028.09;15666346;28;20175;-54
2023/05/25 19:35:47;;;;;;;3.22;1.50;;;;;;;16.62;52.26;102022.78;15663874;28;20064;-47
2023/05/25 19:43:20;;;;;;;1.80;0.88;;;;;;;16.41;53.60;102029.38;15684673;28;20073;-50
2023/05/25 19:50:54;;;;;;;1.35;0.77;;;;;;;16.21;53.65;102024.88;15679646;28;20072;-46
2023/05/25 19:58:27;;;;;;;8.43;1.02;;;;;;;16.08;53.93;102030.38;15674594;28;20601;-47
2023/05/25 20:06:01;;;;;;;2.43;1.57;;;;;;;15.81;55.07;102035.91;15650502;28;20106;-55
2023/05/25 20:13:37;;;;;;;0.93;0.60;;;;;;;15.67;55.56;102038.88;15678960;28;20397;-50
2023/05/25 20:21:11;;;;;;;1.83;0.77;;;;;;;15.45;56.62;102049.06;15667568;28;20390;-50
2023/05/25 20:28:43;;;;;;;8.50;0.95;;;;;;;15.43;56.55;102051.13;15672392;28;20505;-54
2023/05/25 20:36:19;;;;;;;3.00;1.02;;;;;;;15.38;56.82;102067.16;15668640;28;20068;-48
2023/05/25 20:43:51;;;;;;;0.80;0.65;;;;;;;15.02;58.18;102065.75;15633253;28;20052;-49
2023/05/25 20:51:25;;;;;;;0.50;0.50;;;;;;;15.27;57.65;102063.22;15644288;28;20047;-54
2023/05/25 20:58:58;;;;;;;1.05;0.82;;;;;;;15.27;57.26;102068.66;15640153;28;20057;-46
2023/05/25 21:06:34;;;;;;;1.77;1.07;;;;;;;15.15;57.49;102060.31;15668626;28;20052;-52
2023/05/25 21:14:07;;;;;;;2.95;1.05;;;;;;;15.02;57.54;102068.44;15657846;28;20112;-49
2023/05/25 21:21:41;;;;;;;1.57;1.07;;;;;;;14.90;57.70;102068.22;15673487;28;20457;-50
2023/05/25 21:29:14;;;;;;;3.72;1.73;;;;;;;14.80;57.79;102065.91;15651821;28;20317;-53
2023/05/25 21:36:48;;;;;;;0.40;0.40;;;;;;;14.56;58.31;102069.19;15663253;28;20063;-52
2023/05/25 21:44:21;;;;;;;2.60;1.33;;;;;;;14.39;58.69;102054.34;15673716;28;20047;-49
2023/05/25 21:51:56;;;;;;;2.93;1.33;;;;;;;14.40;58.57;102078.44;15670338;28;20123;-50
2023/05/25 21:59:30;;;;;;;7.35;0.93;;;;;;;14.20;59.30;102091.88;15651359;28;20404;-46
2023/05/25 22:07:04;;;;;;;0.70;0.70;;;;;;;14.06;59.31;102090.16;15662313;28;20044;-53
2023/05/25 22:14:37;;;;;;;7.43;1.23;;;;;;;13.94;59.63;102108.81;15670996;28;20053;-51
2023/05/25 22:22:11;;;;;;;2.67;1.83;;;;;;;13.89;59.38;102107.72;15652223;28;20477;-51
2023/05/25 22:29:44;;;;;;;0.80;0.80;;;;;;;13.78;59.68;102112.63;15675144;28;20045;-47
2023/05/25 22:37:18;;;;;;;2.70;0.93;;;;;;;13.68;60.12;102114.03;15675182;28;20079;-47
2023/05/25 22:44:51;;;;;;;0.68;0.47;;;;;;;13.67;60.11;102120.47;15668502;28;20550;-49
2023/05/25 22:52:25;;;;;;;2.00;0.80;;;;;;;13.53;60.80;102125.75;15667757;28;20044;-54
2023/05/25 22:59:58;;;;;;;1.90;0.85;;;;;;;13.55;60.35;102128.25;15662589;28;20148;-49
2023/05/25 23:07:32;;;;;;;1.40;1.00;;;;;;;13.35;60.70;102138.88;15645861;28;20033;-50
2023/05/25 23:15:06;;;;;;;8.38;1.38;;;;;;;13.48;60.32;102130.91;15648753;28;20470;-49
2023/05/25 23:22:44;;;;;;;0.57;0.57;;;;;;;13.43;60.08;102127.09;15667610;28;20354;-47
2023/05/25 23:30:17;;;;;;;1.02;0.60;;;;;;;13.34;60.32;102129.13;15668507;28;20044;-48
2023/05/25 23:37:51;;;;;;;3.90;0.67;;;;;;;13.27;60.83;102122.84;15656062;28;20579;-48
2023/05/25 23:45:23;;;;;;;1.33;0.65;;;;;;;13.24;60.83;102134.00;15668223;28;20137;-50
2023/05/25 23:52:57;;;;;;;1.38;1.20;;;;;;;13.13;61.02;102132.63;15648947;28;20087;-51
